sensor_id;sensor_type;location;lat;lon;timestamp;temperature;humidity
12833;DHT22;6483;51.310;4.462;2023-07-22T00:00:29;17.00;37.10
12833;DHT22;6483;51.310;4.462;2023-07-22T00:02:55;17.00;40.00
12833;DHT22;6483;51.310;4.462;2023-07-22T00:05:20;16.80;57.40
12833;DHT22;6483;51.310;4.462;2023-07-22T00:07:49;16.70;52.50
12833;DHT22;6483;51.310;4.462;2023-07-22T00:10:16;16.40;91.40
12833;DHT22;6483;51.310;4.462;2023-07-22T00:12:42;16.20;95.90
12833;DHT22;6483;51.310;4.462;2023-07-22T00:15:10;16.10;99.90
12833;DHT22;6483;51.310;4.462;2023-07-22T00:17:43;15.90;99.90
12833;DHT22;6483;51.310;4.462;2023-07-22T00:20:11;15.80;99.90
12833;DHT22;6483;51.310;4.462;2023-07-22T00:22:38;15.80;99.90
12833;DHT22;6483;51.310;4.462;2023-07-22T00:25:14;15.70;99.90
12833;DHT22;6483;51.310;4.462;2023-07-22T00:27:41;15.80;99.90
12833;DHT22;6483;51.310;4.462;2023-07-22T00:30:07;15.90;99.90
12833;DHT22;6483;51.310;4.462;2023-07-22T00:32:37;15.80;99.90
12833;DHT22;6483;51.310;4.462;2023-07-22T00:35:04;15.80;99.90
12833;DHT22;6483;51.310;4.462;2023-07-22T00:37:34;15.90;99.90
12833;DHT22;6483;51.310;4.462;2023-07-22T00:40:06;15.90;99.90
12833;DHT22;6483;51.310;4.462;2023-07-22T00:42:37;16.00;99.90
12833;DHT22;6483;51.310;4.462;2023-07-22T00:45:05;16.00;99.90
12833;DHT22;6483;51.310;4.462;2023-07-22T00:47:32;16.10;99.90
12833;DHT22;6483;51.310;4.462;2023-07-22T00:50:04;16.00;99.90
12833;DHT22;6483;51.310;4.462;2023-07-22T00:52:36;16.00;99.90
12833;DHT22;6483;51.310;4.462;2023-07-22T00:55:04;16.00;99.90
12833;DHT22;6483;51.310;4.462;2023-07-22T00:57:30;16.00;99.90
12833;DHT22;6483;51.310;4.462;2023-07-22T00:59:56;16.10;99.90
12833;DHT22;6483;51.310;4.462;2023-07-22T01:02:25;16.20;99.90
12833;DHT22;6483;51.310;4.462;2023-07-22T01:04:51;16.20;99.90
12833;DHT22;6483;51.310;4.462;2023-07-22T01:07:17;16.20;99.90
12833;DHT22;6483;51.310;4.462;2023-07-22T01:09:43;16.20;99.90
12833;DHT22;6483;51.310;4.462;2023-07-22T01:12:10;16.20;99.90
12833;DHT22;6483;51.310;4.462;2023-07-22T01:14:40;16.30;99.90
12833;DHT22;6483;51.310;4.462;2023-07-22T01:17:08;16.30;99.90
12833;DHT22;6483;51.310;4.462;2023-07-22T01:19:38;16.20;99.90
12833;DHT22;6483;51.310;4.462;2023-07-22T01:22:08;16.20;99.90
12833;DHT22;6483;51.310;4.462;2023-07-22T01:24:38;16.10;99.90
12833;DHT22;6483;51.310;4.462;2023-07-22T01:27:07;16.00;99.90
12833;DHT22;6483;51.310;4.462;2023-07-22T01:29:38;15.90;99.90
12833;DHT22;6483;51.310;4.462;2023-07-22T01:32:07;15.70;99.90
12833;DHT22;6483;51.310;4.462;2023-07-22T01:34:36;15.60;99.90
12833;DHT22;6483;51.310;4.462;2023-07-22T01:37:05;15.50;99.90
12833;DHT22;6483;51.310;4.462;2023-07-22T01:39:30;15.40;99.90
12833;DHT22;6483;51.310;4.462;2023-07-22T01:41:56;15.20;99.90
12833;DHT22;6483;51.310;4.462;2023-07-22T01:44:22;15.10;99.90
12833;DHT22;6483;51.310;4.462;2023-07-22T01:46:47;15.00;99.90
12833;DHT22;6483;51.310;4.462;2023-07-22T01:49:16;14.90;99.90
12833;DHT22;6483;51.310;4.462;2023-07-22T01:51:45;14.90;99.90
12833;DHT22;6483;51.310;4.462;2023-07-22T01:54:11;14.80;99.90
12833;DHT22;6483;51.310;4.462;2023-07-22T01:56:38;14.80;99.90
12833;DHT22;6483;51.310;4.462;2023-07-22T01:59:05;14.60;99.90
12833;DHT22;6483;51.310;4.462;2023-07-22T02:01:31;14.50;99.90
12833;DHT22;6483;51.310;4.462;2023-07-22T02:03:57;14.60;99.90
12833;DHT22;6483;51.310;4.462;2023-07-22T02:06:23;14.50;99.90
12833;DHT22;6483;51.310;4.462;2023-07-22T02:08:49;14.50;99.90
12833;DHT22;6483;51.310;4.462;2023-07-22T02:11:17;14.40;99.90
12833;DHT22;6483;51.310;4.462;2023-07-22T02:13:43;14.40;99.90
12833;DHT22;6483;51.310;4.462;2023-07-22T02:16:14;14.30;99.90
12833;DHT22;6483;51.310;4.462;2023-07-22T02:18:42;14.10;99.90
12833;DHT22;6483;51.310;4.462;2023-07-22T02:21:07;14.10;99.90
12833;DHT22;6483;51.310;4.462;2023-07-22T02:23:36;14.00;99.90
12833;DHT22;6483;51.310;4.462;2023-07-22T02:26:08;14.00;99.90
12833;DHT22;6483;51.310;4.462;2023-07-22T02:28:34;14.10;99.90
12833;DHT22;6483;51.310;4.462;2023-07-22T02:31:02;14.10;99.90
12833;DHT22;6483;51.310;4.462;2023-07-22T02:33:34;14.10;99.90
12833;DHT22;6483;51.310;4.462;2023-07-22T02:36:00;14.10;99.90
12833;DHT22;6483;51.310;4.462;2023-07-22T02:38:32;14.10;99.90
12833;DHT22;6483;51.310;4.462;2023-07-22T02:41:02;14.20;99.90
12833;DHT22;6483;51.310;4.462;2023-07-22T02:43:29;14.10;99.90
12833;DHT22;6483;51.310;4.462;2023-07-22T02:45:54;14.00;99.90
12833;DHT22;6483;51.310;4.462;2023-07-22T02:48:20;13.90;99.90
12833;DHT22;6483;51.310;4.462;2023-07-22T02:51:06;14.00;99.90
12833;DHT22;6483;51.310;4.462;2023-07-22T02:53:36;13.90;99.90
12833;DHT22;6483;51.310;4.462;2023-07-22T02:56:05;13.90;99.90
12833;DHT22;6483;51.310;4.462;2023-07-22T02:58:33;13.90;99.90
12833;DHT22;6483;51.310;4.462;2023-07-22T03:01:05;13.90;99.90
12833;DHT22;6483;51.310;4.462;2023-07-22T03:03:36;13.90;99.90
12833;DHT22;6483;51.310;4.462;2023-07-22T03:06:05;14.00;99.90
12833;DHT22;6483;51.310;4.462;2023-07-22T03:08:32;14.00;99.90
12833;DHT22;6483;51.310;4.462;2023-07-22T03:10:58;13.90;99.90
12833;DHT22;6483;51.310;4.462;2023-07-22T03:13:27;14.00;99.90
12833;DHT22;6483;51.310;4.462;2023-07-22T03:16:00;13.90;99.90
12833;DHT22;6483;51.310;4.462;2023-07-22T03:18:30;13.90;99.90
12833;DHT22;6483;51.310;4.462;2023-07-22T03:20:59;13.90;99.90
12833;DHT22;6483;51.310;4.462;2023-07-22T03:23:25;13.90;99.90
12833;DHT22;6483;51.310;4.462;2023-07-22T03:25:50;13.90;99.90
12833;DHT22;6483;51.310;4.462;2023-07-22T03:28:22;13.90;99.90
12833;DHT22;6483;51.310;4.462;2023-07-22T03:30:48;13.80;99.90
12833;DHT22;6483;51.310;4.462;2023-07-22T03:33:17;13.90;99.90
12833;DHT22;6483;51.310;4.462;2023-07-22T03:35:45;13.80;99.90
12833;DHT22;6483;51.310;4.462;2023-07-22T03:38:11;13.80;99.90
12833;DHT22;6483;51.310;4.462;2023-07-22T03:40:37;13.70;99.90
12833;DHT22;6483;51.310;4.462;2023-07-22T03:43:04;13.70;99.90
12833;DHT22;6483;51.310;4.462;2023-07-22T03:45:33;13.70;99.90
12833;DHT22;6483;51.310;4.462;2023-07-22T03:48:00;13.60;99.90
12833;DHT22;6483;51.310;4.462;2023-07-22T03:50:26;12.30;99.90
12833;DHT22;6483;51.310;4.462;2023-07-22T03:52:52;13.60;99.90
12833;DHT22;6483;51.310;4.462;2023-07-22T03:55:18;13.60;99.90
12833;DHT22;6483;51.310;4.462;2023-07-22T03:57:50;13.60;99.90
12833;DHT22;6483;51.310;4.462;2023-07-22T04:00:16;13.60;99.90
12833;DHT22;6483;51.310;4.462;2023-07-22T04:02:41;13.60;99.90
12833;DHT22;6483;51.310;4.462;2023-07-22T04:05:08;13.60;99.90
12833;DHT22;6483;51.310;4.462;2023-07-22T04:07:33;13.60;99.90
12833;DHT22;6483;51.310;4.462;2023-07-22T04:10:02;13.60;99.90
12833;DHT22;6483;51.310;4.462;2023-07-22T04:12:28;13.60;99.90
12833;DHT22;6483;51.310;4.462;2023-07-22T04:14:54;13.80;99.90
12833;DHT22;6483;51.310;4.462;2023-07-22T04:17:23;13.90;99.90
12833;DHT22;6483;51.310;4.462;2023-07-22T04:19:51;13.80;99.90
12833;DHT22;6483;51.310;4.462;2023-07-22T04:22:17;13.80;99.90
12833;DHT22;6483;51.310;4.462;2023-07-22T04:24:43;13.90;99.90
12833;DHT22;6483;51.310;4.462;2023-07-22T04:27:08;13.90;99.90
12833;DHT22;6483;51.310;4.462;2023-07-22T04:29:35;13.90;99.90
12833;DHT22;6483;51.310;4.462;2023-07-22T04:32:01;14.00;99.90
12833;DHT22;6483;51.310;4.462;2023-07-22T04:34:31;14.10;99.90
12833;DHT22;6483;51.310;4.462;2023-07-22T04:36:57;14.20;99.90
12833;DHT22;6483;51.310;4.462;2023-07-22T09:36:57;14.30;99.90
12833;DHT22;6483;51.310;4.462;2023-07-22T09:39:26;21.90;1.00
12833;DHT22;6483;51.310;4.462;2023-07-22T09:41:53;21.80;1.00
12833;DHT22;6483;51.310;4.462;2023-07-22T09:44:19;22.10;1.00
12833;DHT22;6483;51.310;4.462;2023-07-22T09:46:49;22.00;1.00
12833;DHT22;6483;51.310;4.462;2023-07-22T09:49:17;22.30;1.00
12833;DHT22;6483;51.310;4.462;2023-07-22T09:51:43;22.40;1.00
12833;DHT22;6483;51.310;4.462;2023-07-22T09:54:08;22.40;1.00
12833;DHT22;6483;51.310;4.462;2023-07-22T09:57:03;19.40;1.00
12833;DHT22;6483;51.310;4.462;2023-07-22T09:59:30;21.80;1.00
12833;DHT22;6483;51.310;4.462;2023-07-22T10:01:57;21.90;1.00
12833;DHT22;6483;51.310;4.462;2023-07-22T10:04:28;21.70;1.00
12833;DHT22;6483;51.310;4.462;2023-07-22T10:06:57;21.60;1.00
12833;DHT22;6483;51.310;4.462;2023-07-22T10:09:25;21.60;1.00
12833;DHT22;6483;51.310;4.462;2023-07-22T10:11:53;21.60;1.00
12833;DHT22;6483;51.310;4.462;2023-07-22T10:14:19;22.60;1.00
12833;DHT22;6483;51.310;4.462;2023-07-22T10:16:45;23.20;1.00
12833;DHT22;6483;51.310;4.462;2023-07-22T10:19:11;23.10;1.00
12833;DHT22;6483;51.310;4.462;2023-07-22T10:21:38;22.90;1.00
12833;DHT22;6483;51.310;4.462;2023-07-22T10:24:04;22.50;1.00
12833;DHT22;6483;51.310;4.462;2023-07-22T10:26:31;22.50;1.00
12833;DHT22;6483;51.310;4.462;2023-07-22T10:28:58;23.00;1.00
12833;DHT22;6483;51.310;4.462;2023-07-22T10:31:24;23.80;1.00
12833;DHT22;6483;51.310;4.462;2023-07-22T10:33:50;23.70;1.00
12833;DHT22;6483;51.310;4.462;2023-07-22T10:36:16;23.80;1.00
12833;DHT22;6483;51.310;4.462;2023-07-22T10:38:43;23.70;1.00
12833;DHT22;6483;51.310;4.462;2023-07-22T10:41:16;23.60;1.00
12833;DHT22;6483;51.310;4.462;2023-07-22T10:43:58;23.20;1.00
12833;DHT22;6483;51.310;4.462;2023-07-22T10:46:35;23.10;1.00
12833;DHT22;6483;51.310;4.462;2023-07-22T10:49:12;23.00;1.00
12833;DHT22;6483;51.310;4.462;2023-07-22T10:51:38;23.50;1.00
12833;DHT22;6483;51.310;4.462;2023-07-22T10:54:11;23.30;1.00
12833;DHT22;6483;51.310;4.462;2023-07-22T10:56:37;23.70;1.00
12833;DHT22;6483;51.310;4.462;2023-07-22T10:59:02;23.30;1.00
12833;DHT22;6483;51.310;4.462;2023-07-22T11:01:33;23.50;1.00
12833;DHT22;6483;51.310;4.462;2023-07-22T11:06:34;24.80;1.00
12833;DHT22;6483;51.310;4.462;2023-07-22T11:09:00;25.60;1.00
12833;DHT22;6483;51.310;4.462;2023-07-22T11:11:40;25.50;1.00
12833;DHT22;6483;51.310;4.462;2023-07-22T11:14:16;25.40;1.00
12833;DHT22;6483;51.310;4.462;2023-07-22T11:16:43;25.90;1.00
12833;DHT22;6483;51.310;4.462;2023-07-22T11:19:10;25.30;1.00
12833;DHT22;6483;51.310;4.462;2023-07-22T11:21:36;25.20;1.00
12833;DHT22;6483;51.310;4.462;2023-07-22T11:24:04;25.10;1.00
12833;DHT22;6483;51.310;4.462;2023-07-22T11:26:30;24.60;1.00
12833;DHT22;6483;51.310;4.462;2023-07-22T11:28:57;24.70;1.00
12833;DHT22;6483;51.310;4.462;2023-07-22T11:31:29;24.40;1.00
12833;DHT22;6483;51.310;4.462;2023-07-22T11:33:55;24.60;1.00
12833;DHT22;6483;51.310;4.462;2023-07-22T11:36:21;24.00;1.00
12833;DHT22;6483;51.310;4.462;2023-07-22T11:38:46;23.60;1.00
12833;DHT22;6483;51.310;4.462;2023-07-22T11:41:12;23.70;1.00
12833;DHT22;6483;51.310;4.462;2023-07-22T11:43:39;23.50;1.00
12833;DHT22;6483;51.310;4.462;2023-07-22T11:46:05;23.10;1.00
12833;DHT22;6483;51.310;4.462;2023-07-22T11:48:32;22.80;1.00
12833;DHT22;6483;51.310;4.462;2023-07-22T11:51:01;22.50;1.00
12833;DHT22;6483;51.310;4.462;2023-07-22T11:53:27;22.50;1.00
12833;DHT22;6483;51.310;4.462;2023-07-22T11:56:00;23.00;1.00
12833;DHT22;6483;51.310;4.462;2023-07-22T11:58:32;23.10;1.00
12833;DHT22;6483;51.310;4.462;2023-07-22T12:01:10;23.20;1.00
12833;DHT22;6483;51.310;4.462;2023-07-22T12:03:36;23.20;1.00
12833;DHT22;6483;51.310;4.462;2023-07-22T12:06:03;23.50;1.00
12833;DHT22;6483;51.310;4.462;2023-07-22T12:08:29;23.40;1.00
12833;DHT22;6483;51.310;4.462;2023-07-22T12:11:01;23.40;1.00
12833;DHT22;6483;51.310;4.462;2023-07-22T12:13:27;23.90;1.00
12833;DHT22;6483;51.310;4.462;2023-07-22T12:16:06;24.90;1.00
12833;DHT22;6483;51.310;4.462;2023-07-22T12:19:01;25.70;1.00
12833;DHT22;6483;51.310;4.462;2023-07-22T12:21:27;24.90;1.00
12833;DHT22;6483;51.310;4.462;2023-07-22T12:23:53;24.30;1.00
12833;DHT22;6483;51.310;4.462;2023-07-22T12:26:19;25.40;1.00
12833;DHT22;6483;51.310;4.462;2023-07-22T12:28:44;26.20;1.00
12833;DHT22;6483;51.310;4.462;2023-07-22T12:31:10;26.40;1.00
12833;DHT22;6483;51.310;4.462;2023-07-22T12:33:36;26.40;1.00
12833;DHT22;6483;51.310;4.462;2023-07-22T12:36:01;25.30;1.00
12833;DHT22;6483;51.310;4.462;2023-07-22T12:38:27;24.60;1.00
12833;DHT22;6483;51.310;4.462;2023-07-22T12:40:53;24.80;1.00
12833;DHT22;6483;51.310;4.462;2023-07-22T12:43:18;25.20;1.00
12833;DHT22;6483;51.310;4.462;2023-07-22T12:45:44;24.70;1.00
12833;DHT22;6483;51.310;4.462;2023-07-22T12:48:10;25.80;1.00
12833;DHT22;6483;51.310;4.462;2023-07-22T12:50:35;25.40;1.00
12833;DHT22;6483;51.310;4.462;2023-07-22T12:53:02;24.70;1.00
12833;DHT22;6483;51.310;4.462;2023-07-22T12:55:28;24.10;1.00
12833;DHT22;6483;51.310;4.462;2023-07-22T12:57:54;23.50;1.00
12833;DHT22;6483;51.310;4.462;2023-07-22T13:00:21;22.80;1.00
12833;DHT22;6483;51.310;4.462;2023-07-22T13:02:50;21.90;1.00
12833;DHT22;6483;51.310;4.462;2023-07-22T13:05:18;21.50;1.00
12833;DHT22;6483;51.310;4.462;2023-07-22T13:07:44;21.10;1.00
12833;DHT22;6483;51.310;4.462;2023-07-22T13:10:10;20.80;1.00
12833;DHT22;6483;51.310;4.462;2023-07-22T13:12:40;20.50;1.00
12833;DHT22;6483;51.310;4.462;2023-07-22T13:15:06;20.40;1.00
12833;DHT22;6483;51.310;4.462;2023-07-22T13:17:32;20.30;1.00
12833;DHT22;6483;51.310;4.462;2023-07-22T13:19:58;20.40;1.00
12833;DHT22;6483;51.310;4.462;2023-07-22T13:22:24;20.50;1.00
12833;DHT22;6483;51.310;4.462;2023-07-22T13:24:50;20.50;1.00
12833;DHT22;6483;51.310;4.462;2023-07-22T13:27:18;20.40;1.00
12833;DHT22;6483;51.310;4.462;2023-07-22T13:29:44;20.40;1.00
12833;DHT22;6483;51.310;4.462;2023-07-22T13:32:12;20.30;1.00
12833;DHT22;6483;51.310;4.462;2023-07-22T13:34:41;20.30;1.00
12833;DHT22;6483;51.310;4.462;2023-07-22T13:37:06;20.30;1.00
12833;DHT22;6483;51.310;4.462;2023-07-22T13:39:32;20.30;1.00
12833;DHT22;6483;51.310;4.462;2023-07-22T13:41:59;20.40;1.00
12833;DHT22;6483;51.310;4.462;2023-07-22T13:44:24;20.50;1.00
12833;DHT22;6483;51.310;4.462;2023-07-22T13:46:50;20.70;1.00
12833;DHT22;6483;51.310;4.462;2023-07-22T13:49:16;20.80;1.00
12833;DHT22;6483;51.310;4.462;2023-07-22T13:51:45;21.00;1.00
12833;DHT22;6483;51.310;4.462;2023-07-22T13:54:12;21.20;1.00
12833;DHT22;6483;51.310;4.462;2023-07-22T13:56:37;21.30;1.00
12833;DHT22;6483;51.310;4.462;2023-07-22T13:59:03;21.40;1.00
12833;DHT22;6483;51.310;4.462;2023-07-22T14:01:33;21.50;1.00
12833;DHT22;6483;51.310;4.462;2023-07-22T14:04:01;21.70;1.00
12833;DHT22;6483;51.310;4.462;2023-07-22T14:06:28;21.90;1.00
12833;DHT22;6483;51.310;4.462;2023-07-22T14:08:54;22.10;1.00
12833;DHT22;6483;51.310;4.462;2023-07-22T14:11:26;22.10;1.00
12833;DHT22;6483;51.310;4.462;2023-07-22T14:13:54;22.00;1.00
12833;DHT22;6483;51.310;4.462;2023-07-22T14:16:20;22.10;1.00
12833;DHT22;6483;51.310;4.462;2023-07-22T14:18:45;22.50;1.00
12833;DHT22;6483;51.310;4.462;2023-07-22T14:21:14;22.70;1.00
12833;DHT22;6483;51.310;4.462;2023-07-22T14:23:40;22.50;1.00
12833;DHT22;6483;51.310;4.462;2023-07-22T14:26:05;22.00;1.00
12833;DHT22;6483;51.310;4.462;2023-07-22T14:28:31;21.60;1.00
12833;DHT22;6483;51.310;4.462;2023-07-22T14:30:57;21.30;1.00
12833;DHT22;6483;51.310;4.462;2023-07-22T14:33:22;21.10;1.00
12833;DHT22;6483;51.310;4.462;2023-07-22T14:35:49;20.80;1.00
12833;DHT22;6483;51.310;4.462;2023-07-22T14:38:15;20.70;1.00
12833;DHT22;6483;51.310;4.462;2023-07-22T14:40:41;20.50;1.00
12833;DHT22;6483;51.310;4.462;2023-07-22T14:43:09;20.40;1.00
12833;DHT22;6483;51.310;4.462;2023-07-22T14:45:35;20.30;1.00
12833;DHT22;6483;51.310;4.462;2023-07-22T14:48:01;20.20;1.00
12833;DHT22;6483;51.310;4.462;2023-07-22T14:50:29;20.20;1.00
12833;DHT22;6483;51.310;4.462;2023-07-22T14:52:55;20.30;1.00
12833;DHT22;6483;51.310;4.462;2023-07-22T14:55:21;20.60;1.00
12833;DHT22;6483;51.310;4.462;2023-07-22T14:57:47;20.70;1.00
12833;DHT22;6483;51.310;4.462;2023-07-22T15:00:15;20.90;1.00
12833;DHT22;6483;51.310;4.462;2023-07-22T15:02:42;21.60;1.00
12833;DHT22;6483;51.310;4.462;2023-07-22T15:05:11;22.70;1.00
12833;DHT22;6483;51.310;4.462;2023-07-22T15:07:37;23.30;1.00
12833;DHT22;6483;51.310;4.462;2023-07-22T15:10:03;22.80;1.00
12833;DHT22;6483;51.310;4.462;2023-07-22T15:12:29;22.60;1.00
12833;DHT22;6483;51.310;4.462;2023-07-22T15:14:59;22.60;1.00
12833;DHT22;6483;51.310;4.462;2023-07-22T15:17:29;22.40;1.00
12833;DHT22;6483;51.310;4.462;2023-07-22T15:19:57;22.50;1.00
12833;DHT22;6483;51.310;4.462;2023-07-22T15:22:23;22.20;1.00
12833;DHT22;6483;51.310;4.462;2023-07-22T15:24:48;22.00;1.00
12833;DHT22;6483;51.310;4.462;2023-07-22T15:27:14;21.70;1.00
12833;DHT22;6483;51.310;4.462;2023-07-22T15:29:46;21.60;1.00
12833;DHT22;6483;51.310;4.462;2023-07-22T15:32:12;21.70;1.00
12833;DHT22;6483;51.310;4.462;2023-07-22T15:34:38;21.50;1.00
12833;DHT22;6483;51.310;4.462;2023-07-22T15:37:05;21.50;1.00
12833;DHT22;6483;51.310;4.462;2023-07-22T15:39:31;21.50;1.00
12833;DHT22;6483;51.310;4.462;2023-07-22T15:42:06;21.80;1.00
12833;DHT22;6483;51.310;4.462;2023-07-22T15:44:35;21.90;1.00
12833;DHT22;6483;51.310;4.462;2023-07-22T15:47:03;21.80;1.00
12833;DHT22;6483;51.310;4.462;2023-07-22T15:49:29;21.60;1.00
12833;DHT22;6483;51.310;4.462;2023-07-22T15:51:55;21.40;1.00
12833;DHT22;6483;51.310;4.462;2023-07-22T15:54:24;21.40;1.00
12833;DHT22;6483;51.310;4.462;2023-07-22T15:56:53;21.30;1.00
12833;DHT22;6483;51.310;4.462;2023-07-22T15:59:18;21.10;1.00
12833;DHT22;6483;51.310;4.462;2023-07-22T16:01:44;20.90;1.00
12833;DHT22;6483;51.310;4.462;2023-07-22T16:04:11;20.70;1.00
12833;DHT22;6483;51.310;4.462;2023-07-22T16:06:36;20.40;1.00
12833;DHT22;6483;51.310;4.462;2023-07-22T16:09:05;20.30;1.00
12833;DHT22;6483;51.310;4.462;2023-07-22T16:11:30;20.20;1.00
12833;DHT22;6483;51.310;4.462;2023-07-22T16:13:56;20.00;1.00
12833;DHT22;6483;51.310;4.462;2023-07-22T16:16:22;19.90;1.00
12833;DHT22;6483;51.310;4.462;2023-07-22T16:18:51;19.80;1.00
12833;DHT22;6483;51.310;4.462;2023-07-22T16:21:19;19.70;1.00
12833;DHT22;6483;51.310;4.462;2023-07-22T16:23:51;19.70;1.00
12833;DHT22;6483;51.310;4.462;2023-07-22T16:26:16;19.70;1.00
12833;DHT22;6483;51.310;4.462;2023-07-22T16:28:43;19.60;1.00
12833;DHT22;6483;51.310;4.462;2023-07-22T16:31:09;19.50;1.00
12833;DHT22;6483;51.310;4.462;2023-07-22T16:33:35;22.30;1.00
12833;DHT22;6483;51.310;4.462;2023-07-22T16:36:01;19.50;1.00
12833;DHT22;6483;51.310;4.462;2023-07-22T16:38:27;19.50;1.00
12833;DHT22;6483;51.310;4.462;2023-07-22T16:40:55;19.50;1.00
12833;DHT22;6483;51.310;4.462;2023-07-22T16:43:21;19.60;1.00
12833;DHT22;6483;51.310;4.462;2023-07-22T16:45:47;19.80;1.00
12833;DHT22;6483;51.310;4.462;2023-07-22T16:48:12;19.80;1.00
12833;DHT22;6483;51.310;4.462;2023-07-22T16:50:38;19.90;1.00
12833;DHT22;6483;51.310;4.462;2023-07-22T16:53:06;20.00;1.00
12833;DHT22;6483;51.310;4.462;2023-07-22T16:55:32;19.80;1.00
12833;DHT22;6483;51.310;4.462;2023-07-22T16:58:04;19.80;1.00
12833;DHT22;6483;51.310;4.462;2023-07-22T17:00:30;19.80;1.00
12833;DHT22;6483;51.310;4.462;2023-07-22T17:02:56;19.90;1.00
12833;DHT22;6483;51.310;4.462;2023-07-22T17:05:22;19.90;1.00
12833;DHT22;6483;51.310;4.462;2023-07-22T17:07:48;19.80;1.00
12833;DHT22;6483;51.310;4.462;2023-07-22T17:10:14;19.70;1.00
12833;DHT22;6483;51.310;4.462;2023-07-22T17:12:43;19.70;1.00
12833;DHT22;6483;51.310;4.462;2023-07-22T17:15:09;19.70;1.00
12833;DHT22;6483;51.310;4.462;2023-07-22T17:17:36;19.70;1.00
12833;DHT22;6483;51.310;4.462;2023-07-22T17:20:02;19.70;1.00
12833;DHT22;6483;51.310;4.462;2023-07-22T17:22:28;19.70;1.00
12833;DHT22;6483;51.310;4.462;2023-07-22T17:24:56;19.70;1.00
12833;DHT22;6483;51.310;4.462;2023-07-22T17:27:22;19.60;1.00
12833;DHT22;6483;51.310;4.462;2023-07-22T17:29:48;19.50;1.00
12833;DHT22;6483;51.310;4.462;2023-07-22T17:32:14;19.40;1.00
12833;DHT22;6483;51.310;4.462;2023-07-22T17:34:39;19.20;1.00
12833;DHT22;6483;51.310;4.462;2023-07-22T17:37:06;19.10;1.00
12833;DHT22;6483;51.310;4.462;2023-07-22T17:39:32;18.90;1.00
12833;DHT22;6483;51.310;4.462;2023-07-22T17:41:58;18.70;1.00
12833;DHT22;6483;51.310;4.462;2023-07-22T17:44:27;18.40;1.00
12833;DHT22;6483;51.310;4.462;2023-07-22T17:46:54;18.30;1.00
12833;DHT22;6483;51.310;4.462;2023-07-22T17:49:20;18.20;1.00
12833;DHT22;6483;51.310;4.462;2023-07-22T17:51:46;18.10;6.10
12833;DHT22;6483;51.310;4.462;2023-07-22T17:54:17;18.00;5.30
12833;DHT22;6483;51.310;4.462;2023-07-22T17:56:42;18.00;18.30
12833;DHT22;6483;51.310;4.462;2023-07-22T17:59:11;17.80;24.20
12833;DHT22;6483;51.310;4.462;2023-07-22T18:01:40;17.70;39.00
12833;DHT22;6483;51.310;4.462;2023-07-22T18:04:05;17.50;67.10
12833;DHT22;6483;51.310;4.462;2023-07-22T18:06:31;17.40;98.10
12833;DHT22;6483;51.310;4.462;2023-07-22T18:08:57;17.30;99.90
12833;DHT22;6483;51.310;4.462;2023-07-22T18:11:22;17.20;99.90
12833;DHT22;6483;51.310;4.462;2023-07-22T18:13:48;17.30;99.90
12833;DHT22;6483;51.310;4.462;2023-07-22T18:16:32;17.30;99.90
12833;DHT22;6483;51.310;4.462;2023-07-22T18:18:57;17.30;99.90
12833;DHT22;6483;51.310;4.462;2023-07-22T18:21:23;17.40;99.90
12833;DHT22;6483;51.310;4.462;2023-07-22T18:23:52;17.40;99.90
12833;DHT22;6483;51.310;4.462;2023-07-22T18:26:17;17.40;99.90
12833;DHT22;6483;51.310;4.462;2023-07-22T18:28:46;17.50;99.90
12833;DHT22;6483;51.310;4.462;2023-07-22T18:31:14;17.50;99.90
12833;DHT22;6483;51.310;4.462;2023-07-22T18:33:43;17.60;99.90
12833;DHT22;6483;51.310;4.462;2023-07-22T18:36:10;17.70;99.90
12833;DHT22;6483;51.310;4.462;2023-07-22T18:38:36;17.70;99.90
12833;DHT22;6483;51.310;4.462;2023-07-22T18:41:03;17.70;99.90
12833;DHT22;6483;51.310;4.462;2023-07-22T18:43:28;17.70;99.90
12833;DHT22;6483;51.310;4.462;2023-07-22T18:45:54;17.70;99.90
12833;DHT22;6483;51.310;4.462;2023-07-22T18:48:20;17.70;99.90
12833;DHT22;6483;51.310;4.462;2023-07-22T18:50:56;17.60;99.90
12833;DHT22;6483;51.310;4.462;2023-07-22T18:53:23;17.60;99.90
12833;DHT22;6483;51.310;4.462;2023-07-22T18:55:48;17.60;99.90
12833;DHT22;6483;51.310;4.462;2023-07-22T18:58:17;17.50;99.90
12833;DHT22;6483;51.310;4.462;2023-07-22T19:00:43;17.40;99.90
12833;DHT22;6483;51.310;4.462;2023-07-22T19:03:09;17.30;99.90
12833;DHT22;6483;51.310;4.462;2023-07-22T19:05:37;17.40;99.90
12833;DHT22;6483;51.310;4.462;2023-07-22T19:08:04;17.40;99.90
12833;DHT22;6483;51.310;4.462;2023-07-22T19:10:30;17.40;99.90
12833;DHT22;6483;51.310;4.462;2023-07-22T19:12:55;17.40;99.90
12833;DHT22;6483;51.310;4.462;2023-07-22T19:15:21;17.40;99.90
12833;DHT22;6483;51.310;4.462;2023-07-22T19:17:47;17.30;99.90
12833;DHT22;6483;51.310;4.462;2023-07-22T19:20:13;17.20;99.90
12833;DHT22;6483;51.310;4.462;2023-07-22T19:22:41;17.20;99.90
12833;DHT22;6483;51.310;4.462;2023-07-22T19:25:09;17.30;99.90
12833;DHT22;6483;51.310;4.462;2023-07-22T19:27:34;17.20;99.90
12833;DHT22;6483;51.310;4.462;2023-07-22T19:30:03;16.40;99.90
12833;DHT22;6483;51.310;4.462;2023-07-22T19:32:29;17.10;99.90
12833;DHT22;6483;51.310;4.462;2023-07-22T19:35:05;17.10;99.90
12833;DHT22;6483;51.310;4.462;2023-07-22T19:37:30;17.00;99.90
12833;DHT22;6483;51.310;4.462;2023-07-22T19:39:56;17.00;99.90
12833;DHT22;6483;51.310;4.462;2023-07-22T19:42:25;16.90;99.90
12833;DHT22;6483;51.310;4.462;2023-07-22T19:44:50;16.90;99.90
12833;DHT22;6483;51.310;4.462;2023-07-22T19:47:16;17.00;99.90
12833;DHT22;6483;51.310;4.462;2023-07-22T19:49:42;16.90;99.90
12833;DHT22;6483;51.310;4.462;2023-07-22T19:52:11;16.80;99.90
12833;DHT22;6483;51.310;4.462;2023-07-22T19:54:37;16.80;99.90
12833;DHT22;6483;51.310;4.462;2023-07-22T19:57:03;16.60;99.90
12833;DHT22;6483;51.310;4.462;2023-07-22T19:59:47;16.60;99.90
12833;DHT22;6483;51.310;4.462;2023-07-22T20:02:13;16.50;99.90
12833;DHT22;6483;51.310;4.462;2023-07-22T20:04:42;16.50;99.90
12833;DHT22;6483;51.310;4.462;2023-07-22T20:07:08;16.40;99.90
12833;DHT22;6483;51.310;4.462;2023-07-22T20:09:34;16.40;99.90
12833;DHT22;6483;51.310;4.462;2023-07-22T20:12:00;16.30;99.90
12833;DHT22;6483;51.310;4.462;2023-07-22T20:14:26;16.30;99.90
12833;DHT22;6483;51.310;4.462;2023-07-22T20:16:51;16.30;99.90
12833;DHT22;6483;51.310;4.462;2023-07-22T20:19:20;16.20;99.90
12833;DHT22;6483;51.310;4.462;2023-07-22T20:21:45;16.10;99.90
12833;DHT22;6483;51.310;4.462;2023-07-22T20:24:11;16.00;99.90
12833;DHT22;6483;51.310;4.462;2023-07-22T20:26:37;16.00;99.90
12833;DHT22;6483;51.310;4.462;2023-07-22T20:29:02;16.10;99.90
12833;DHT22;6483;51.310;4.462;2023-07-22T20:31:29;16.10;99.90
12833;DHT22;6483;51.310;4.462;2023-07-22T20:33:57;16.10;99.90
12833;DHT22;6483;51.310;4.462;2023-07-22T20:36:24;16.00;99.90
12833;DHT22;6483;51.310;4.462;2023-07-22T20:38:50;15.90;99.90
12833;DHT22;6483;51.310;4.462;2023-07-22T20:41:16;15.80;99.90
12833;DHT22;6483;51.310;4.462;2023-07-22T20:43:43;15.80;99.90
12833;DHT22;6483;51.310;4.462;2023-07-22T20:46:12;15.80;99.90
12833;DHT22;6483;51.310;4.462;2023-07-22T20:48:40;15.80;99.90
12833;DHT22;6483;51.310;4.462;2023-07-22T20:51:09;15.80;99.90
12833;DHT22;6483;51.310;4.462;2023-07-22T20:53:35;15.80;99.90
12833;DHT22;6483;51.310;4.462;2023-07-22T20:56:07;15.80;99.90